sensor_id;sensor_type;location;lat;lon;timestamp;P1;durP1;ratioP1;P2;durP2;ratioP2
18796;SDS011;9526;52.612;13.300;2022-09-01T00:02:26;2.78;;;1.90;;
18796;SDS011;9526;52.612;13.300;2022-09-01T00:04:50;3.58;;;1.60;;
18796;SDS011;9526;52.612;13.300;2022-09-01T00:07:19;4.05;;;1.77;;
18796;SDS011;9526;52.612;13.300;2022-09-01T00:09:42;1.75;;;1.40;;
18796;SDS011;9526;52.612;13.300;2022-09-01T00:12:07;2.40;;;1.50;;
18796;SDS011;9526;52.612;13.300;2022-09-01T00:14:32;1.63;;;1.52;;
18796;SDS011;9526;52.612;13.300;2022-09-01T00:17:03;2.72;;;1.65;;
18796;SDS011;9526;52.612;13.300;2022-09-01T00:19:30;3.95;;;1.60;;
18796;SDS011;9526;52.612;13.300;2022-09-01T00:21:56;3.60;;;1.85;;
18796;SDS011;9526;52.612;13.300;2022-09-01T00:24:21;3.42;;;1.55;;
18796;SDS011;9526;52.612;13.300;2022-09-01T00:26:46;2.17;;;1.55;;
18796;SDS011;9526;52.612;13.300;2022-09-01T00:29:11;3.72;;;1.73;;
18796;SDS011;9526;52.612;13.300;2022-09-01T00:31:35;4.07;;;1.80;;
18796;SDS011;9526;52.612;13.300;2022-09-01T00:33:59;1.73;;;1.60;;
18796;SDS011;9526;52.612;13.300;2022-09-01T00:36:25;4.68;;;1.80;;
18796;SDS011;9526;52.612;13.300;2022-09-01T00:38:49;3.13;;;1.60;;
18796;SDS011;9526;52.612;13.300;2022-09-01T00:41:14;2.47;;;1.65;;
18796;SDS011;9526;52.612;13.300;2022-09-01T00:43:40;2.60;;;1.70;;
18796;SDS011;9526;52.612;13.300;2022-09-01T00:46:07;3.13;;;1.70;;
18796;SDS011;9526;52.612;13.300;2022-09-01T00:48:38;2.15;;;1.77;;
18796;SDS011;9526;52.612;13.300;2022-09-01T00:51:03;4.63;;;1.70;;
18796;SDS011;9526;52.612;13.300;2022-09-01T00:53:30;3.05;;;1.70;;
18796;SDS011;9526;52.612;13.300;2022-09-01T00:55:55;2.58;;;1.60;;
18796;SDS011;9526;52.612;13.300;2022-09-01T00:58:19;2.63;;;1.50;;
18796;SDS011;9526;52.612;13.300;2022-09-01T01:00:43;4.50;;;1.88;;
18796;SDS011;9526;52.612;13.300;2022-09-01T01:03:12;2.83;;;1.63;;
18796;SDS011;9526;52.612;13.300;2022-09-01T01:05:37;3.10;;;1.50;;
18796;SDS011;9526;52.612;13.300;2022-09-01T01:08:06;1.80;;;1.50;;
18796;SDS011;9526;52.612;13.300;2022-09-01T01:10:36;4.03;;;1.52;;
18796;SDS011;9526;52.612;13.300;2022-09-01T01:13:04;2.40;;;1.60;;
18796;SDS011;9526;52.612;13.300;2022-09-01T01:15:30;3.00;;;1.70;;
18796;SDS011;9526;52.612;13.300;2022-09-01T01:17:54;4.50;;;1.50;;
18796;SDS011;9526;52.612;13.300;2022-09-01T01:20:18;3.80;;;1.55;;
18796;SDS011;9526;52.612;13.300;2022-09-01T01:23:06;1.75;;;1.42;;
18796;SDS011;9526;52.612;13.300;2022-09-01T01:25:39;4.72;;;1.65;;
18796;SDS011;9526;52.612;13.300;2022-09-01T01:28:10;2.15;;;1.50;;
18796;SDS011;9526;52.612;13.300;2022-09-01T01:30:36;4.07;;;1.58;;
18796;SDS011;9526;52.612;13.300;2022-09-01T01:33:04;1.50;;;1.40;;
18796;SDS011;9526;52.612;13.300;2022-09-01T01:35:29;3.40;;;1.40;;
18796;SDS011;9526;52.612;13.300;2022-09-01T01:37:54;3.38;;;1.50;;
18796;SDS011;9526;52.612;13.300;2022-09-01T01:40:18;2.10;;;1.50;;
18796;SDS011;9526;52.612;13.300;2022-09-01T01:42:45;4.07;;;1.77;;
18796;SDS011;9526;52.612;13.300;2022-09-01T01:45:11;3.95;;;1.80;;
18796;SDS011;9526;52.612;13.300;2022-09-01T01:47:38;3.08;;;1.40;;
18796;SDS011;9526;52.612;13.300;2022-09-01T01:50:02;2.10;;;1.70;;
18796;SDS011;9526;52.612;13.300;2022-09-01T01:52:30;3.20;;;1.70;;
18796;SDS011;9526;52.612;13.300;2022-09-01T01:54:58;2.70;;;1.70;;
18796;SDS011;9526;52.612;13.300;2022-09-01T01:57:25;2.58;;;1.50;;
18796;SDS011;9526;52.612;13.300;2022-09-01T01:59:53;2.05;;;1.60;;
18796;SDS011;9526;52.612;13.300;2022-09-01T02:02:17;2.17;;;1.52;;
18796;SDS011;9526;52.612;13.300;2022-09-01T02:04:42;1.70;;;1.55;;
18796;SDS011;9526;52.612;13.300;2022-09-01T02:07:08;3.03;;;1.60;;
18796;SDS011;9526;52.612;13.300;2022-09-01T02:09:33;2.20;;;1.40;;
18796;SDS011;9526;52.612;13.300;2022-09-01T02:12:00;5.75;;;1.85;;
18796;SDS011;9526;52.612;13.300;2022-09-01T02:14:25;2.58;;;1.52;;
18796;SDS011;9526;52.612;13.300;2022-09-01T02:16:51;4.05;;;1.80;;
18796;SDS011;9526;52.612;13.300;2022-09-01T02:19:16;5.07;;;1.85;;
18796;SDS011;9526;52.612;13.300;2022-09-01T02:21:41;2.03;;;1.67;;
18796;SDS011;9526;52.612;13.300;2022-09-01T02:24:07;2.58;;;1.70;;
18796;SDS011;9526;52.612;13.300;2022-09-01T02:26:33;2.65;;;1.50;;
18796;SDS011;9526;52.612;13.300;2022-09-01T02:29:00;3.28;;;1.67;;
18796;SDS011;9526;52.612;13.300;2022-09-01T02:31:31;1.77;;;1.30;;
18796;SDS011;9526;52.612;13.300;2022-09-01T02:34:01;2.03;;;1.60;;
18796;SDS011;9526;52.612;13.300;2022-09-01T02:36:26;6.53;;;2.20;;
18796;SDS011;9526;52.612;13.300;2022-09-01T02:38:53;3.08;;;1.95;;
18796;SDS011;9526;52.612;13.300;2022-09-01T02:41:19;2.95;;;1.52;;
18796;SDS011;9526;52.612;13.300;2022-09-01T02:43:44;2.28;;;1.77;;
18796;SDS011;9526;52.612;13.300;2022-09-01T02:46:08;2.80;;;2.03;;
18796;SDS011;9526;52.612;13.300;2022-09-01T02:48:33;2.38;;;1.45;;
18796;SDS011;9526;52.612;13.300;2022-09-01T02:51:02;3.83;;;1.80;;
18796;SDS011;9526;52.612;13.300;2022-09-01T02:53:29;3.63;;;2.00;;
18796;SDS011;9526;52.612;13.300;2022-09-01T02:55:56;2.38;;;1.67;;
18796;SDS011;9526;52.612;13.300;2022-09-01T02:58:21;3.67;;;1.70;;
18796;SDS011;9526;52.612;13.300;2022-09-01T03:00:50;2.22;;;1.80;;
18796;SDS011;9526;52.612;13.300;2022-09-01T03:03:15;2.03;;;1.70;;
18796;SDS011;9526;52.612;13.300;2022-09-01T03:05:42;2.80;;;1.80;;
18796;SDS011;9526;52.612;13.300;2022-09-01T03:08:09;3.55;;;1.95;;
18796;SDS011;9526;52.612;13.300;2022-09-01T03:10:37;3.03;;;1.60;;
18796;SDS011;9526;52.612;13.300;2022-09-01T03:13:03;3.80;;;1.58;;
18796;SDS011;9526;52.612;13.300;2022-09-01T03:15:29;2.63;;;1.95;;
18796;SDS011;9526;52.612;13.300;2022-09-01T03:17:55;3.05;;;1.90;;
18796;SDS011;9526;52.612;13.300;2022-09-01T03:20:21;2.15;;;1.77;;
18796;SDS011;9526;52.612;13.300;2022-09-01T03:22:45;2.53;;;1.80;;
18796;SDS011;9526;52.612;13.300;2022-09-01T03:25:10;2.03;;;1.80;;
18796;SDS011;9526;52.612;13.300;2022-09-01T03:27:34;4.20;;;2.45;;
18796;SDS011;9526;52.612;13.300;2022-09-01T03:29:58;4.13;;;2.10;;
18796;SDS011;9526;52.612;13.300;2022-09-01T03:32:22;2.63;;;1.88;;
18796;SDS011;9526;52.612;13.300;2022-09-01T03:34:46;5.43;;;2.05;;
18796;SDS011;9526;52.612;13.300;2022-09-01T03:37:11;1.90;;;1.80;;
18796;SDS011;9526;52.612;13.300;2022-09-01T03:39:35;2.42;;;2.22;;
18796;SDS011;9526;52.612;13.300;2022-09-01T03:42:01;4.47;;;2.00;;
18796;SDS011;9526;52.612;13.300;2022-09-01T03:44:26;2.55;;;2.03;;
18796;SDS011;9526;52.612;13.300;2022-09-01T03:46:50;2.78;;;2.08;;
18796;SDS011;9526;52.612;13.300;2022-09-01T03:49:14;3.92;;;2.28;;
18796;SDS011;9526;52.612;13.300;2022-09-01T03:51:45;3.00;;;2.15;;
18796;SDS011;9526;52.612;13.300;2022-09-01T03:54:10;5.28;;;2.58;;
18796;SDS011;9526;52.612;13.300;2022-09-01T03:56:34;2.97;;;2.47;;
18796;SDS011;9526;52.612;13.300;2022-09-01T03:59:08;5.32;;;2.75;;
18796;SDS011;9526;52.612;13.300;2022-09-01T04:01:38;6.28;;;2.60;;
18796;SDS011;9526;52.612;13.300;2022-09-01T04:04:04;5.03;;;2.17;;
18796;SDS011;9526;52.612;13.300;2022-09-01T04:06:28;8.68;;;2.25;;
18796;SDS011;9526;52.612;13.300;2022-09-01T04:08:52;3.75;;;2.50;;
18796;SDS011;9526;52.612;13.300;2022-09-01T04:11:28;5.18;;;2.13;;
18796;SDS011;9526;52.612;13.300;2022-09-01T04:13:52;4.82;;;2.45;;
18796;SDS011;9526;52.612;13.300;2022-09-01T04:16:18;3.08;;;2.55;;
18796;SDS011;9526;52.612;13.300;2022-09-01T04:19:02;6.22;;;2.53;;
18796;SDS011;9526;52.612;13.300;2022-09-01T04:21:36;4.40;;;2.85;;
18796;SDS011;9526;52.612;13.300;2022-09-01T04:24:00;14.13;;;3.17;;
18796;SDS011;9526;52.612;13.300;2022-09-01T04:26:27;3.88;;;2.85;;
18796;SDS011;9526;52.612;13.300;2022-09-01T04:28:51;6.40;;;3.20;;
18796;SDS011;9526;52.612;13.300;2022-09-01T04:31:17;4.13;;;2.70;;
18796;SDS011;9526;52.612;13.300;2022-09-01T04:33:45;4.15;;;3.20;;
18796;SDS011;9526;52.612;13.300;2022-09-01T04:36:15;4.95;;;2.97;;
18796;SDS011;9526;52.612;13.300;2022-09-01T04:38:43;8.05;;;3.45;;
18796;SDS011;9526;52.612;13.300;2022-09-01T04:41:07;5.38;;;3.20;;
18796;SDS011;9526;52.612;13.300;2022-09-01T04:43:37;3.78;;;3.22;;
18796;SDS011;9526;52.612;13.300;2022-09-01T04:46:01;6.90;;;3.00;;
18796;SDS011;9526;52.612;13.300;2022-09-01T04:48:26;8.02;;;3.30;;
18796;SDS011;9526;52.612;13.300;2022-09-01T04:50:52;5.60;;;3.25;;
18796;SDS011;9526;52.612;13.300;2022-09-01T04:53:21;4.28;;;3.30;;
18796;SDS011;9526;52.612;13.300;2022-09-01T04:55:49;5.95;;;3.25;;
18796;SDS011;9526;52.612;13.300;2022-09-01T04:58:17;4.63;;;3.05;;
18796;SDS011;9526;52.612;13.300;2022-09-01T05:00:43;5.68;;;2.72;;
18796;SDS011;9526;52.612;13.300;2022-09-01T05:03:11;3.33;;;2.70;;
18796;SDS011;9526;52.612;13.300;2022-09-01T05:05:49;5.40;;;2.72;;
18796;SDS011;9526;52.612;13.300;2022-09-01T05:08:16;3.70;;;2.78;;
18796;SDS011;9526;52.612;13.300;2022-09-01T05:10:47;2.55;;;2.33;;
18796;SDS011;9526;52.612;13.300;2022-09-01T05:13:24;4.90;;;2.55;;
18796;SDS011;9526;52.612;13.300;2022-09-01T05:15:58;3.53;;;2.45;;
18796;SDS011;9526;52.612;13.300;2022-09-01T05:18:24;2.55;;;2.15;;
18796;SDS011;9526;52.612;13.300;2022-09-01T05:20:50;3.63;;;2.63;;
18796;SDS011;9526;52.612;13.300;2022-09-01T05:23:14;5.40;;;2.95;;
18796;SDS011;9526;52.612;13.300;2022-09-01T05:25:40;3.85;;;2.50;;
18796;SDS011;9526;52.612;13.300;2022-09-01T05:28:06;6.15;;;2.63;;
18796;SDS011;9526;52.612;13.300;2022-09-01T05:30:32;4.07;;;2.40;;
18796;SDS011;9526;52.612;13.300;2022-09-01T05:32:57;3.78;;;2.40;;
18796;SDS011;9526;52.612;13.300;2022-09-01T05:35:22;13.27;;;2.65;;
18796;SDS011;9526;52.612;13.300;2022-09-01T05:37:56;4.65;;;2.30;;
18796;SDS011;9526;52.612;13.300;2022-09-01T05:40:20;3.10;;;2.20;;
18796;SDS011;9526;52.612;13.300;2022-09-01T05:42:45;3.85;;;1.98;;
18796;SDS011;9526;52.612;13.300;2022-09-01T05:45:09;3.45;;;2.15;;
18796;SDS011;9526;52.612;13.300;2022-09-01T05:47:34;3.67;;;2.40;;
18796;SDS011;9526;52.612;13.300;2022-09-01T05:49:58;5.95;;;2.13;;
18796;SDS011;9526;52.612;13.300;2022-09-01T05:52:23;2.90;;;2.10;;
18796;SDS011;9526;52.612;13.300;2022-09-01T05:54:49;4.10;;;2.10;;
18796;SDS011;9526;52.612;13.300;2022-09-01T05:57:13;2.70;;;1.70;;
18796;SDS011;9526;52.612;13.300;2022-09-01T05:59:55;4.03;;;2.00;;
18796;SDS011;9526;52.612;13.300;2022-09-01T06:02:20;4.70;;;2.08;;
18796;SDS011;9526;52.612;13.300;2022-09-01T06:04:44;4.53;;;1.90;;
18796;SDS011;9526;52.612;13.300;2022-09-01T06:07:16;3.00;;;2.65;;
18796;SDS011;9526;52.612;13.300;2022-09-01T06:09:49;2.85;;;2.60;;
18796;SDS011;9526;52.612;13.300;2022-09-01T06:12:16;3.15;;;2.50;;
18796;SDS011;9526;52.612;13.300;2022-09-01T06:14:45;2.80;;;2.30;;
18796;SDS011;9526;52.612;13.300;2022-09-01T06:17:11;7.00;;;2.53;;
18796;SDS011;9526;52.612;13.300;2022-09-01T06:19:37;3.03;;;2.47;;
18796;SDS011;9526;52.612;13.300;2022-09-01T06:22:01;2.80;;;2.40;;
18796;SDS011;9526;52.612;13.300;2022-09-01T06:24:25;3.92;;;2.78;;
18796;SDS011;9526;52.612;13.300;2022-09-01T06:26:51;3.38;;;2.75;;
18796;SDS011;9526;52.612;13.300;2022-09-01T06:29:15;3.35;;;3.03;;
18796;SDS011;9526;52.612;13.300;2022-09-01T06:31:43;5.03;;;3.17;;
18796;SDS011;9526;52.612;13.300;2022-09-01T06:34:13;3.72;;;3.28;;
18796;SDS011;9526;52.612;13.300;2022-09-01T06:36:39;4.13;;;3.25;;
18796;SDS011;9526;52.612;13.300;2022-09-01T06:39:03;4.13;;;3.20;;
18796;SDS011;9526;52.612;13.300;2022-09-01T06:41:28;3.97;;;3.10;;
18796;SDS011;9526;52.612;13.300;2022-09-01T06:43:54;4.82;;;2.90;;
18796;SDS011;9526;52.612;13.300;2022-09-01T06:46:18;3.05;;;2.47;;
18796;SDS011;9526;52.612;13.300;2022-09-01T06:48:42;3.38;;;3.10;;
18796;SDS011;9526;52.612;13.300;2022-09-01T06:51:08;2.55;;;1.40;;
18796;SDS011;9526;52.612;13.300;2022-09-01T06:53:38;2.55;;;1.95;;
18796;SDS011;9526;52.612;13.300;2022-09-01T06:56:05;2.70;;;2.22;;
18796;SDS011;9526;52.612;13.300;2022-09-01T06:58:31;2.25;;;1.38;;
18796;SDS011;9526;52.612;13.300;2022-09-01T07:00:57;4.95;;;2.40;;
18796;SDS011;9526;52.612;13.300;2022-09-01T07:03:20;2.33;;;1.38;;
18796;SDS011;9526;52.612;13.300;2022-09-01T07:05:57;1.77;;;1.08;;
18796;SDS011;9526;52.612;13.300;2022-09-01T07:08:59;3.08;;;1.10;;
18796;SDS011;9526;52.612;13.300;2022-09-01T07:12:03;1.40;;;1.08;;
18796;SDS011;9526;52.612;13.300;2022-09-01T07:14:45;2.17;;;1.10;;
18796;SDS011;9526;52.612;13.300;2022-09-01T07:17:31;2.55;;;1.10;;
18796;SDS011;9526;52.612;13.300;2022-09-01T07:19:55;3.20;;;1.10;;
18796;SDS011;9526;52.612;13.300;2022-09-01T07:22:39;2.67;;;1.10;;
18796;SDS011;9526;52.612;13.300;2022-09-01T07:25:23;1.35;;;1.08;;
18796;SDS011;9526;52.612;13.300;2022-09-01T07:28:16;3.13;;;1.10;;
18796;SDS011;9526;52.612;13.300;2022-09-01T07:30:46;2.05;;;1.20;;
18796;SDS011;9526;52.612;13.300;2022-09-01T07:33:17;2.30;;;1.20;;
18796;SDS011;9526;52.612;13.300;2022-09-01T07:36:05;4.28;;;1.20;;
18796;SDS011;9526;52.612;13.300;2022-09-01T07:38:50;1.35;;;1.10;;
18796;SDS011;9526;52.612;13.300;2022-09-01T07:41:44;1.52;;;1.00;;
18796;SDS011;9526;52.612;13.300;2022-09-01T07:44:46;2.15;;;1.10;;
18796;SDS011;9526;52.612;13.300;2022-09-01T07:47:36;2.33;;;1.35;;
18796;SDS011;9526;52.612;13.300;2022-09-01T07:50:18;2.78;;;1.30;;
18796;SDS011;9526;52.612;13.300;2022-09-01T07:53:01;2.42;;;1.13;;
18796;SDS011;9526;52.612;13.300;2022-09-01T07:55:26;1.90;;;1.20;;
18796;SDS011;9526;52.612;13.300;2022-09-01T07:57:50;1.90;;;1.13;;
18796;SDS011;9526;52.612;13.300;2022-09-01T08:00:14;2.13;;;1.00;;
18796;SDS011;9526;52.612;13.300;2022-09-01T08:02:43;1.75;;;1.17;;
18796;SDS011;9526;52.612;13.300;2022-09-01T08:05:11;3.22;;;1.00;;
18796;SDS011;9526;52.612;13.300;2022-09-01T08:07:39;1.77;;;1.00;;
18796;SDS011;9526;52.612;13.300;2022-09-01T08:10:24;1.40;;;1.00;;
18796;SDS011;9526;52.612;13.300;2022-09-01T08:12:48;1.85;;;1.15;;
18796;SDS011;9526;52.612;13.300;2022-09-01T08:15:20;1.50;;;1.30;;
18796;SDS011;9526;52.612;13.300;2022-09-01T08:18:04;2.22;;;1.33;;
18796;SDS011;9526;52.612;13.300;2022-09-01T08:20:29;1.85;;;1.10;;
18796;SDS011;9526;52.612;13.300;2022-09-01T08:23:16;1.25;;;0.90;;
18796;SDS011;9526;52.612;13.300;2022-09-01T08:25:44;2.33;;;1.05;;
18796;SDS011;9526;52.612;13.300;2022-09-01T08:28:11;2.60;;;1.23;;
18796;SDS011;9526;52.612;13.300;2022-09-01T08:30:46;1.35;;;1.05;;
18796;SDS011;9526;52.612;13.300;2022-09-01T08:33:16;1.73;;;1.00;;
18796;SDS011;9526;52.612;13.300;2022-09-01T08:35:41;1.73;;;1.00;;
18796;SDS011;9526;52.612;13.300;2022-09-01T08:38:10;1.92;;;0.90;;
18796;SDS011;9526;52.612;13.300;2022-09-01T08:40:37;1.17;;;0.88;;
18796;SDS011;9526;52.612;13.300;2022-09-01T08:43:06;1.20;;;0.68;;
18796;SDS011;9526;52.612;13.300;2022-09-01T08:45:40;1.00;;;0.80;;
18796;SDS011;9526;52.612;13.300;2022-09-01T08:48:11;1.90;;;1.00;;
18796;SDS011;9526;52.612;13.300;2022-09-01T08:51:02;1.15;;;0.70;;
18796;SDS011;9526;52.612;13.300;2022-09-01T08:54:09;1.90;;;0.95;;
18796;SDS011;9526;52.612;13.300;2022-09-01T08:56:53;2.45;;;0.98;;
18796;SDS011;9526;52.612;13.300;2022-09-01T08:59:41;2.00;;;1.00;;
18796;SDS011;9526;52.612;13.300;2022-09-01T09:02:31;3.33;;;1.10;;
18796;SDS011;9526;52.612;13.300;2022-09-01T09:05:06;2.15;;;0.90;;
18796;SDS011;9526;52.612;13.300;2022-09-01T09:07:57;2.92;;;1.02;;
18796;SDS011;9526;52.612;13.300;2022-09-01T09:10:40;1.77;;;0.93;;
18796;SDS011;9526;52.612;13.300;2022-09-01T09:13:15;3.63;;;0.93;;
18796;SDS011;9526;52.612;13.300;2022-09-01T09:15:46;2.50;;;1.25;;
18796;SDS011;9526;52.612;13.300;2022-09-01T09:18:28;1.67;;;0.82;;
18796;SDS011;9526;52.612;13.300;2022-09-01T09:21:16;0.95;;;0.80;;
18796;SDS011;9526;52.612;13.300;2022-09-01T09:23:44;0.82;;;0.80;;
18796;SDS011;9526;52.612;13.300;2022-09-01T09:26:16;1.45;;;0.80;;
18796;SDS011;9526;52.612;13.300;2022-09-01T09:28:44;2.85;;;0.90;;
18796;SDS011;9526;52.612;13.300;2022-09-01T09:31:26;1.23;;;0.90;;
18796;SDS011;9526;52.612;13.300;2022-09-01T09:33:56;1.30;;;0.90;;
18796;SDS011;9526;52.612;13.300;2022-09-01T09:36:21;2.72;;;0.80;;
18796;SDS011;9526;52.612;13.300;2022-09-01T09:39:02;2.67;;;0.90;;
18796;SDS011;9526;52.612;13.300;2022-09-01T09:41:29;2.58;;;1.00;;
18796;SDS011;9526;52.612;13.300;2022-09-01T09:43:55;1.05;;;0.95;;
18796;SDS011;9526;52.612;13.300;2022-09-01T09:46:23;1.95;;;0.70;;
18796;SDS011;9526;52.612;13.300;2022-09-01T09:49:04;3.45;;;0.80;;
18796;SDS011;9526;52.612;13.300;2022-09-01T09:51:35;1.25;;;0.90;;
18796;SDS011;9526;52.612;13.300;2022-09-01T09:54:11;2.00;;;0.93;;
18796;SDS011;9526;52.612;13.300;2022-09-01T09:56:36;1.40;;;0.85;;
18796;SDS011;9526;52.612;13.300;2022-09-01T09:59:15;1.27;;;0.93;;
18796;SDS011;9526;52.612;13.300;2022-09-01T10:02:21;1.83;;;0.93;;
18796;SDS011;9526;52.612;13.300;2022-09-01T10:04:49;1.02;;;0.63;;
18796;SDS011;9526;52.612;13.300;2022-09-01T10:07:27;2.53;;;0.80;;
18796;SDS011;9526;52.612;13.300;2022-09-01T10:09:56;1.40;;;0.60;;
18796;SDS011;9526;52.612;13.300;2022-09-01T10:12:22;1.00;;;0.70;;
18796;SDS011;9526;52.612;13.300;2022-09-01T10:14:49;1.67;;;0.90;;
18796;SDS011;9526;52.612;13.300;2022-09-01T10:17:18;0.63;;;0.60;;
18796;SDS011;9526;52.612;13.300;2022-09-01T10:19:48;2.50;;;0.60;;
18796;SDS011;9526;52.612;13.300;2022-09-01T10:22:17;4.63;;;0.90;;
18796;SDS011;9526;52.612;13.300;2022-09-01T10:24:42;1.00;;;0.73;;
18796;SDS011;9526;52.612;13.300;2022-09-01T10:27:11;2.45;;;0.80;;
18796;SDS011;9526;52.612;13.300;2022-09-01T10:29:42;4.03;;;0.60;;
18796;SDS011;9526;52.612;13.300;2022-09-01T10:32:12;2.95;;;0.75;;
18796;SDS011;9526;52.612;13.300;2022-09-01T10:34:58;2.17;;;0.70;;
18796;SDS011;9526;52.612;13.300;2022-09-01T10:37:33;0.77;;;0.70;;
18796;SDS011;9526;52.612;13.300;2022-09-01T10:40:10;1.15;;;0.60;;
18796;SDS011;9526;52.612;13.300;2022-09-01T10:45:58;0.73;;;0.70;;
18796;SDS011;9526;52.612;13.300;2022-09-01T10:48:31;0.80;;;0.60;;
18796;SDS011;9526;52.612;13.300;2022-09-01T10:57:20;0.43;;;0.43;;
18796;SDS011;9526;52.612;13.300;2022-09-01T11:03:38;0.63;;;0.50;;
18796;SDS011;9526;52.612;13.300;2022-09-01T11:09:36;1.27;;;0.60;;
18796;SDS011;9526;52.612;13.300;2022-09-01T11:17:57;1.02;;;0.60;;
18796;SDS011;9526;52.612;13.300;2022-09-01T11:20:23;0.63;;;0.50;;
18796;SDS011;9526;52.612;13.300;2022-09-01T11:22:57;1.05;;;0.60;;
18796;SDS011;9526;52.612;13.300;2022-09-01T11:25:35;0.82;;;0.40;;
18796;SDS011;9526;52.612;13.300;2022-09-01T11:30:58;1.05;;;0.50;;
18796;SDS011;9526;52.612;13.300;2022-09-01T11:33:37;0.65;;;0.60;;
18796;SDS011;9526;52.612;13.300;2022-09-01T11:36:14;0.60;;;0.60;;
18796;SDS011;9526;52.612;13.300;2022-09-01T11:38:46;1.10;;;0.45;;
18796;SDS011;9526;52.612;13.300;2022-09-01T11:41:23;0.98;;;0.57;;
18796;SDS011;9526;52.612;13.300;2022-09-01T11:43:50;0.52;;;0.40;;
18796;SDS011;9526;52.612;13.300;2022-09-01T11:46:20;1.02;;;0.40;;
18796;SDS011;9526;52.612;13.300;2022-09-01T11:48:49;0.47;;;0.45;;
18796;SDS011;9526;52.612;13.300;2022-09-01T11:51:15;0.50;;;0.50;;
18796;SDS011;9526;52.612;13.300;2022-09-01T11:53:39;1.45;;;0.70;;
18796;SDS011;9526;52.612;13.300;2022-09-01T11:56:11;0.73;;;0.60;;
18796;SDS011;9526;52.612;13.300;2022-09-01T11:58:37;0.73;;;0.60;;
18796;SDS011;9526;52.612;13.300;2022-09-01T12:01:10;0.70;;;0.52;;
18796;SDS011;9526;52.612;13.300;2022-09-01T12:03:37;3.45;;;0.70;;
18796;SDS011;9526;52.612;13.300;2022-09-01T12:06:02;0.80;;;0.60;;
18796;SDS011;9526;52.612;13.300;2022-09-01T12:08:30;0.68;;;0.57;;
18796;SDS011;9526;52.612;13.300;2022-09-01T12:11:02;3.15;;;0.60;;
18796;SDS011;9526;52.612;13.300;2022-09-01T12:13:29;3.92;;;0.88;;
18796;SDS011;9526;52.612;13.300;2022-09-01T12:15:53;1.63;;;0.77;;
18796;SDS011;9526;52.612;13.300;2022-09-01T12:18:43;0.68;;;0.43;;
18796;SDS011;9526;52.612;13.300;2022-09-01T12:21:16;1.15;;;0.60;;
18796;SDS011;9526;52.612;13.300;2022-09-01T12:23:45;0.70;;;0.70;;
18796;SDS011;9526;52.612;13.300;2022-09-01T12:26:10;0.80;;;0.60;;
18796;SDS011;9526;52.612;13.300;2022-09-01T12:28:37;0.77;;;0.50;;
18796;SDS011;9526;52.612;13.300;2022-09-01T12:31:03;0.50;;;0.50;;
18796;SDS011;9526;52.612;13.300;2022-09-01T12:33:30;1.27;;;0.60;;
18796;SDS011;9526;52.612;13.300;2022-09-01T12:38:37;1.52;;;0.70;;
18796;SDS011;9526;52.612;13.300;2022-09-01T12:41:03;0.98;;;0.63;;
18796;SDS011;9526;52.612;13.300;2022-09-01T12:43:55;2.67;;;0.50;;
18796;SDS011;9526;52.612;13.300;2022-09-01T12:49:14;1.05;;;0.55;;
18796;SDS011;9526;52.612;13.300;2022-09-01T12:51:40;0.85;;;0.57;;
18796;SDS011;9526;52.612;13.300;2022-09-01T12:54:04;0.55;;;0.55;;
18796;SDS011;9526;52.612;13.300;2022-09-01T12:56:31;0.63;;;0.50;;
18796;SDS011;9526;52.612;13.300;2022-09-01T12:59:03;0.98;;;0.40;;
18796;SDS011;9526;52.612;13.300;2022-09-01T13:01:38;0.68;;;0.60;;
18796;SDS011;9526;52.612;13.300;2022-09-01T13:04:14;2.50;;;0.60;;
18796;SDS011;9526;52.612;13.300;2022-09-01T13:06:50;1.17;;;0.60;;
18796;SDS011;9526;52.612;13.300;2022-09-01T13:09:14;1.45;;;0.60;;
18796;SDS011;9526;52.612;13.300;2022-09-01T13:11:40;0.40;;;0.40;;
18796;SDS011;9526;52.612;13.300;2022-09-01T13:14:28;1.75;;;0.60;;
18796;SDS011;9526;52.612;13.300;2022-09-01T13:16:51;0.47;;;0.40;;
18796;SDS011;9526;52.612;13.300;2022-09-01T13:19:15;0.88;;;0.70;;
18796;SDS011;9526;52.612;13.300;2022-09-01T13:21:48;0.95;;;0.55;;
18796;SDS011;9526;52.612;13.300;2022-09-01T13:24:12;1.80;;;0.52;;
18796;SDS011;9526;52.612;13.300;2022-09-01T13:26:35;0.85;;;0.65;;
18796;SDS011;9526;52.612;13.300;2022-09-01T13:29:00;1.00;;;0.60;;
18796;SDS011;9526;52.612;13.300;2022-09-01T13:31:24;0.80;;;0.60;;
18796;SDS011;9526;52.612;13.300;2022-09-01T13:33:50;0.77;;;0.63;;
18796;SDS011;9526;52.612;13.300;2022-09-01T13:36:34;4.03;;;0.60;;
18796;SDS011;9526;52.612;13.300;2022-09-01T13:39:11;1.30;;;0.40;;
18796;SDS011;9526;52.612;13.300;2022-09-01T13:41:36;1.95;;;0.52;;
18796;SDS011;9526;52.612;13.300;2022-09-01T13:44:02;0.60;;;0.60;;
18796;SDS011;9526;52.612;13.300;2022-09-01T13:46:26;1.30;;;0.77;;
18796;SDS011;9526;52.612;13.300;2022-09-01T13:48:49;0.85;;;0.60;;
18796;SDS011;9526;52.612;13.300;2022-09-01T13:51:33;2.05;;;0.50;;
18796;SDS011;9526;52.612;13.300;2022-09-01T13:53:57;1.05;;;0.73;;
18796;SDS011;9526;52.612;13.300;2022-09-01T13:56:21;0.52;;;0.52;;
18796;SDS011;9526;52.612;13.300;2022-09-01T13:58:45;0.70;;;0.50;;
18796;SDS011;9526;52.612;13.300;2022-09-01T14:01:10;1.30;;;0.70;;
18796;SDS011;9526;52.612;13.300;2022-09-01T14:03:34;0.63;;;0.50;;
18796;SDS011;9526;52.612;13.300;2022-09-01T14:05:58;0.40;;;0.40;;
18796;SDS011;9526;52.612;13.300;2022-09-01T14:08:22;1.20;;;0.45;;
18796;SDS011;9526;52.612;13.300;2022-09-01T14:10:46;0.50;;;0.50;;
18796;SDS011;9526;52.612;13.300;2022-09-01T14:13:12;1.33;;;0.60;;
18796;SDS011;9526;52.612;13.300;2022-09-01T14:15:36;1.27;;;0.75;;
18796;SDS011;9526;52.612;13.300;2022-09-01T14:18:02;0.65;;;0.50;;
18796;SDS011;9526;52.612;13.300;2022-09-01T14:20:27;0.60;;;0.60;;
18796;SDS011;9526;52.612;13.300;2022-09-01T14:22:57;0.55;;;0.55;;
18796;SDS011;9526;52.612;13.300;2022-09-01T14:25:21;0.90;;;0.40;;
18796;SDS011;9526;52.612;13.300;2022-09-01T14:27:45;0.82;;;0.68;;
18796;SDS011;9526;52.612;13.300;2022-09-01T14:30:10;0.50;;;0.50;;
18796;SDS011;9526;52.612;13.300;2022-09-01T14:32:37;0.68;;;0.45;;
18796;SDS011;9526;52.612;13.300;2022-09-01T14:35:02;0.85;;;0.70;;
18796;SDS011;9526;52.612;13.300;2022-09-01T14:37:28;1.85;;;0.70;;
18796;SDS011;9526;52.612;13.300;2022-09-01T14:39:52;0.80;;;0.80;;
18796;SDS011;9526;52.612;13.300;2022-09-01T14:42:18;0.55;;;0.55;;
18796;SDS011;9526;52.612;13.300;2022-09-01T14:44:44;1.95;;;0.55;;
18796;SDS011;9526;52.612;13.300;2022-09-01T14:47:08;0.95;;;0.50;;
18796;SDS011;9526;52.612;13.300;2022-09-01T14:49:39;0.50;;;0.50;;
18796;SDS011;9526;52.612;13.300;2022-09-01T14:52:04;0.73;;;0.60;;
18796;SDS011;9526;52.612;13.300;2022-09-01T14:54:31;0.80;;;0.80;;
18796;SDS011;9526;52.612;13.300;2022-09-01T14:56:55;1.55;;;0.77;;
18796;SDS011;9526;52.612;13.300;2022-09-01T14:59:39;2.25;;;0.60;;
18796;SDS011;9526;52.612;13.300;2022-09-01T15:02:03;0.80;;;0.70;;
18796;SDS011;9526;52.612;13.300;2022-09-01T15:04:27;0.90;;;0.68;;
18796;SDS011;9526;52.612;13.300;2022-09-01T15:06:51;0.60;;;0.60;;
18796;SDS011;9526;52.612;13.300;2022-09-01T15:09:17;0.63;;;0.60;;
18796;SDS011;9526;52.612;13.300;2022-09-01T15:11:40;1.70;;;0.55;;
18796;SDS011;9526;52.612;13.300;2022-09-01T15:14:06;0.68;;;0.68;;
18796;SDS011;9526;52.612;13.300;2022-09-01T15:16:30;0.85;;;0.80;;
18796;SDS011;9526;52.612;13.300;2022-09-01T15:19:00;0.70;;;0.70;;
18796;SDS011;9526;52.612;13.300;2022-09-01T15:21:25;0.93;;;0.63;;
18796;SDS011;9526;52.612;13.300;2022-09-01T15:23:52;0.52;;;0.52;;
18796;SDS011;9526;52.612;13.300;2022-09-01T15:26:18;1.23;;;0.70;;
18796;SDS011;9526;52.612;13.300;2022-09-01T15:28:43;0.95;;;0.60;;
18796;SDS011;9526;52.612;13.300;2022-09-01T15:31:08;1.17;;;0.70;;
18796;SDS011;9526;52.612;13.300;2022-09-01T15:33:33;2.13;;;0.57;;